Tiempo atmosférico en la estación meteorológica de Mora, Toledo (717 m.)



Fecha
DESCASC
Temp. máxima en grados centígrados (hora)
DESCASC
Temp. mínima en grados centígrados (hora)
DESCASC
Temp. media en grados centígrados
DESCASC
Racha de viento máxima en m/sg (hora)
DESCASC
Velocidad máxima media en intervalos de 10 minutos(hora)
DESCASC
Precipitaciones diarias en mm
DESCASC
Precipitaciones de 00:00 a 06:00 en mm
DESCASC
Precipitaciones de 06:00 a 12:00 en mm
DESCASC
Precipitaciones de 12:00 a 18:00 en mm
DESCASC
Precipitaciones de 18:00 a 24:00 en mm
DESCASC
20-01-2019 9.6 (15:10) 2.7 (23:40) 6.2 10.28 (16:00) 7.22 (15:10) 1.2 1 0.2 0 0
19-01-2019 7.5 (12:50) -2.6 (07:40) 2.5 5.83 (19:50) 3.33 (20:00) 1 0 0 0 1
18-01-2019 8.3 (14:30) -2 (-00:0) 3.2 5.28 (16:30) 3.06 (17:40) 0 0 0 0 0
17-01-2019 6.7 (16:40) 0.9 (00:00) 3.8 4.44 (17:50) 2.22 (17:40) 0 0 0 0 0
16-01-2019 12.7 (14:00) -0.9 (06:40) 5.9 5.56 (15:10) 3.61 (15:10) 0 0 0 0 0
15-01-2019 14 (17:00) -2 (-00:0) 6 3.61 (14:30) 1.94 (00:30) 0 0 0 0 0
14-01-2019 16 (17:10) -0.2 (00:00) 7.9 5.83 (13:50) 3.33 (14:10) 0 0 0 0 0
13-01-2019 12.7 (16:00) -3.1 (08:50) 4.8 5.56 (16:20) 3.61 (16:10) 0 0 0 0 0
12-01-2019 10.4 (16:10) -4.3 (-00:0) 3 6.11 (14:50) 3.61 (14:30) 0 0 0 0 0
11-01-2019 7.1 (16:50) -6.6 (-00:0) 0.3 9.17 (13:00) 5 (11:40) 0 0 0 0 0
10-01-2019 9 (16:10) -3.8 (-00:0) 2.6 9.72 (11:40) 6.94 (11:40) 0 0 0 0 0
09-01-2019 13.2 (16:40) -0.1 (00:00) 6.5 6.67 (15:30) 4.17 (14:20) 0 0 0 0 0
08-01-2019 13.7 (16:50) -2.8 (-00:0) 5.4 5.28 (14:20) 2.5 (14:30) 0 0 0 0 0
07-01-2019 15 (16:10) -2.1 (-00:0) 6.5 5.56 (16:30) 3.89 (16:30) 0 0 0 0 0
06-01-2019 14.3 (16:10) -0.9 (-00:0) 6.7 6.11 (15:00) 3.61 (14:20) 0 0 0 0 0
05-01-2019 14.5 (15:10) -3.2 (-00:0) 5.6 3.06 (14:30) 1.94 (16:20) 0 0 0 0 0
04-01-2019 13.1 (16:10) -2.3 (-00:0) 5.4 3.89 (12:30) 2.22 (12:40) 0 0 0 0 0
03-01-2019 12.6 (14:50) -2 (-00:0) 5.3 5.83 (15:10) 3.33 (15:10) 0 0 0 0 0
02-01-2019 14.4 (16:00) -0.1 (00:00) 7.1 5.28 (12:00) 2.78 (12:00) 0 0 0 0 0
01-01-2019 16.5 (13:50) -0.6 (07:10) 7.9 5.28 (14:50) 2.5 (14:50) 0 0 0 0 0
31-12-2018 19.1 (16:00) -1.4 (-00:0) 8.9 2.78 (14:20) 1.67 (23:59) 0 0 0 0 0
30-12-2018 14.5 (15:40) -1.3 (-00:0) 6.6 3.89 (13:30) 2.22 (15:10) 0 0 0 0 0
29-12-2018 12 (15:20) -1.7 (-00:0) 5.1 5.28 (11:50) 2.78 (12:10) 0 0 0 0 0
28-12-2018 11.9 (16:30) 0.1 (06:40) 6 4.44 (13:50) 2.78 (13:40) 0 0 0 0 0
27-12-2018 14.4 (14:30) -0.6 (-00:0) 6.9 3.06 (16:20) 1.67 (08:30) 0 0 0 0 0
26-12-2018 14.8 (14:20) 1 (00:00) 7.9 2.5 (16:10) 1.67 (16:10) 0 0 0 0 0
25-12-2018 16 (15:20) 1.6 (00:00) 8.8 5.83 (20:50) 2.78 (20:30) 0 0 0 0 0
23-12-2018 11.3 (16:10) 2 (00:00) 6.7 2.78 (14:00) 1.67 (14:10) 0.2 0 0.2 0 0

Gráficas

Temp. máximas Temp. mínimas Temp. medias Precipitaciones Rachas de viento máximas Velocidades máximas media en intervalos de 10 minutos

Datos horarios

Fecha y hora oficial Temperatura (ºC) Velocidad del viento (km/h) Dirección del viento Racha (km/h) Dirección de racha Precipitación (mm) Presión (hPa) Tendencia (hPa) Humedad (%)
2019-01-21 23:00:00 0.7 3 Oeste 5 Oeste 0 -- -- 72
2019-01-21 22:00:00 2 3 Noroeste 12 Noroeste 0 -- -- 70
2019-01-21 21:00:00 3.2 10 Noroeste 16 Noroeste 0 -- -- 64
2019-01-21 20:00:00 4.6 12 Noroeste 19 Noroeste 0 -- -- 61
2019-01-21 19:00:00 5.7 8 Noroeste 14 Noroeste 0 -- -- 59
2019-01-21 18:00:00 7.1 5 Norte 16 Nordeste 0 -- -- 53
2019-01-21 17:00:00 8.9 12 Norte 23 Norte 0 -- -- 50
2019-01-21 16:00:00 8.7 13 Noroeste 29 Noroeste 0 -- -- 50
2019-01-21 15:00:00 9 15 Noroeste 32 Noroeste 0 -- -- 52
2019-01-21 14:00:00 9 19 Noroeste 32 Noroeste 0 -- -- 54
2019-01-21 13:00:00 8 12 Noroeste 21 Noroeste 0 -- -- 59
2019-01-21 12:00:00 7.2 10 Noroeste 20 Noroeste 0 -- -- 66
2019-01-21 11:00:00 5.5 11 Noroeste 19 Noroeste 0 -- -- 74
2019-01-21 10:00:00 3.6 8 Norte 18 Norte 0 -- -- 82
2019-01-21 09:00:00 0.6 3 Noroeste 8 Oeste 0 -- -- 91
2019-01-21 08:00:00 1.5 4 Oeste 10 Oeste 0 -- -- 88
2019-01-21 07:00:00 1.3 6 Oeste 12 Oeste 0 -- -- 88
2019-01-21 06:00:00 1.1 0 Calma 11 Oeste 0 -- -- 87
2019-01-21 05:00:00 1.3 4 Noroeste 9 Oeste 0 -- -- 87
2019-01-21 04:00:00 1.5 3 Sudoeste 14 Oeste 0 -- -- 87
2019-01-21 03:00:00 2 9 Oeste 14 Oeste 0 -- -- 87
2019-01-21 02:00:00 2.8 4 Oeste 18 Oeste 0 -- -- 83
2019-01-21 01:00:00 2.3 3 Oeste 8 Oeste 0 -- -- 85
2019-01-21 00:00:00 3 2 Noroeste 8 Oeste 0 -- -- 84
2019-01-20 23:00:00 3.4 3 Sudoeste 8 Sudoeste 0 -- -- 81
2019-01-20 22:00:00 4.4 3 Nordeste 10 Noroeste 0 -- -- 79
2019-01-20 21:00:00 5.8 7 Noroeste 15 Noroeste 0 -- -- 73
2019-01-20 20:00:00 5.9 5 Noroeste 15 Noroeste 0 -- -- 73
2019-01-20 19:00:00 6.3 4 Noroeste 21 Noroeste 0 -- -- 69
2019-01-20 18:00:00 7.8 14 Noroeste 32 Noroeste 0 -- -- 62
2019-01-20 17:00:00 8.7 22 Noroeste 35 Noroeste 0 -- -- 59
2019-01-20 16:00:00 9 24 Noroeste 37 Noroeste 0 -- -- 60
2019-01-20 15:00:00 9.5 25 Noroeste 35 Noroeste 0 -- -- 61
2019-01-20 14:00:00 8.8 20 Noroeste 30 Noroeste 0 -- -- 69
2019-01-20 13:00:00 8.8 17 Noroeste 28 Noroeste 0 -- -- 72
2019-01-20 12:00:00 7.6 15 Norte 25 Norte 0 -- -- 78
2019-01-20 11:00:00 5.8 13 Noroeste 21 Noroeste 0 -- -- 90
2019-01-20 10:00:00 5.2 10 Noroeste 20 Noroeste 0 -- -- 95
2019-01-20 09:00:00 4.7 11 Noroeste 24 Noroeste 0.2 -- -- 96
2019-01-20 08:00:00 5.2 12 Noroeste 25 Noroeste 0 -- -- 98
2019-01-20 07:00:00 5.6 13 Noroeste 33 Oeste 0 -- -- 99
2019-01-20 06:00:00 5.6 14 Oeste 28 Oeste 0.4 -- -- 98
2019-01-20 05:00:00 5 11 Noroeste 26 Noroeste 0.6 -- -- 95
2019-01-20 04:00:00 7.2 4 Sudoeste 15 Sur 0 -- -- 90
2019-01-20 03:00:00 7.1 8 Sudoeste 15 Sudoeste 0 -- -- 90
2019-01-20 02:00:00 7.1 7 Sur 14 Sur 0 -- -- 91
2019-01-20 01:00:00 6.4 6 Sur 12 Sur 0 -- -- 92
2019-01-20 00:00:00 6.8 4 Sudoeste 18 Sudoeste 0 -- -- 91
2019-01-19 23:00:00 6.6 5 Sudoeste 13 Sudoeste 0.6 -- -- 92
2019-01-19 22:00:00 6.7 5 Sudoeste 18 Sur 0 -- -- 90
2019-01-19 21:00:00 5.8 7 Sur 19 Sudoeste 0 -- -- 91
2019-01-19 20:00:00 5.8 12 Sudoeste 21 Sur 0.4 -- -- 89
2019-01-19 19:00:00 5.9 6 Sudoeste 13 Sudoeste 0 -- -- 86
2019-01-19 18:00:00 6 7 Sudoeste 13 Sudoeste 0 -- -- 84
2019-01-19 17:00:00 5.8 3 Norte 6 Norte 0 -- -- 80
2019-01-19 16:00:00 6.3 3 Norte 9 Norte 0 -- -- 75
2019-01-19 15:00:00 6.9 6 Norte 12 Oeste 0 -- -- 69
2019-01-19 14:00:00 7.3 2 Sudoeste 8 Sudoeste 0 -- -- 62
2019-01-19 13:00:00 7.5 2 Sudoeste 8 Norte 0 -- -- 61
2019-01-19 12:00:00 6.9 3 Norte 6 Noroeste 0 -- -- 66
2019-01-19 11:00:00 5.7 0 Calma 5 Sudeste 0 -- -- 71
2019-01-19 10:00:00 2.6 3 Sudeste 11 Sudeste 0 -- -- 86
2019-01-19 09:00:00 -1 6 Sur 12 Sudeste 0 -- -- 91
2019-01-19 08:00:00 -2.6 4 Sudeste 8 Sudeste 0 -- -- 90
2019-01-19 07:00:00 -2.3 3 Sur 7 Sur 0 -- -- 88
2019-01-19 06:00:00 -1.1 4 Sur 8 Sur 0 -- -- 85
2019-01-19 05:00:00 -1.3 4 Sudeste 8 Sur 0 -- -- 86
2019-01-19 04:00:00 -1.2 5 Sur 8 Sur 0 -- -- 84
2019-01-19 03:00:00 -0.4 6 Sudeste 8 Sudeste 0 -- -- 87
2019-01-19 02:00:00 -0.4 2 Sur 5 Sur 0 -- -- 88
2019-01-19 01:00:00 0.7 4 Sur 6 Sudeste 0 -- -- 84
2019-01-19 00:00:00 1.1 3 Sudeste 6 Sudeste 0 -- -- 83
2019-01-18 23:00:00 2.1 2 Sur 6 Sur 0 -- -- 80
2019-01-18 22:00:00 2.3 2 Sudoeste 9 Sudoeste 0 -- -- 79
2019-01-18 21:00:00 3.1 5 Sudoeste 11 Sudoeste 0 -- -- 75
2019-01-18 20:00:00 4.8 7 Oeste 14 Oeste 0 -- -- 70
2019-01-18 19:00:00 5.7 7 Oeste 18 Oeste 0 -- -- 68
2019-01-18 18:00:00 6.5 9 Noroeste 18 Noroeste 0 -- -- 60
2019-01-18 17:00:00 7.5 10 Oeste 19 Noroeste 0 -- -- 56
2019-01-18 16:00:00 8 4 Norte 13 Oeste 0 -- -- 52
2019-01-18 15:00:00 7.9 0 Calma 5 Sudoeste 0 -- -- 51
2019-01-18 14:00:00 7.8 0 Calma 5 Noroeste 0 -- -- 53
2019-01-18 13:00:00 6.5 0 Calma 5 Norte 0 -- -- 58
2019-01-18 12:00:00 5.8 0 Calma 4 Sudoeste 0 -- -- 64
2019-01-18 11:00:00 4.8 2 Sur 5 Sudeste 0 -- -- 74
2019-01-18 10:00:00 0 2 Sur 5 Sur 0 -- -- 86
2019-01-18 09:00:00 -1.5 0 Calma 5 Sudeste 0 -- -- 90
2019-01-18 08:00:00 -1.9 4 Sudeste 5 Sur 0 -- -- 90
2019-01-18 07:00:00 -1.4 0 Calma 5 Sudeste 0 -- -- 89
2019-01-18 06:00:00 -1.6 3 Sudeste 4 Sur 0 -- -- 89
2019-01-18 05:00:00 -1.5 2 Sur 5 Sudeste 0 -- -- 90
2019-01-18 04:00:00 -0.7 4 Sur 6 Sur 0 -- -- 89
2019-01-18 03:00:00 -0.1 0 Calma 6 Sudoeste 0 -- -- 91
2019-01-18 02:00:00 0.4 3 Sudoeste 8 Sudeste 0 -- -- 89
2019-01-18 01:00:00 1.7 2 Sudeste 5 Oeste 0 -- -- 88
2019-01-18 00:00:00 2.8 3 Oeste 9 Noroeste 0 -- -- 87
2019-01-17 23:00:00 3.5 0 Calma 4 Sudoeste 0 -- -- 89
2019-01-17 22:00:00 3.8 0 Calma 7 Noroeste 0 -- -- 89
2019-01-17 21:00:00 4.5 0 Calma 10 Noroeste 0 -- -- 88
2019-01-17 20:00:00 4.7 4 Noroeste 8 Noroeste 0 -- -- 88
2019-01-17 19:00:00 4.8 4 Noroeste 7 Noroeste 0 -- -- 87
2019-01-17 18:00:00 5 4 Norte 16 Norte 0 -- -- 84
2019-01-17 17:00:00 6.1 6 Noroeste 10 Noroeste 0 -- -- 80
2019-01-17 16:00:00 5.1 5 Noroeste 12 Noroeste 0 -- -- 86
2019-01-17 15:00:00 4.8 6 Oeste 12 Noroeste 0 -- -- 89
2019-01-17 14:00:00 4.2 3 Noroeste 9 Noroeste 0 -- -- 91
2019-01-17 13:00:00 3.6 4 Norte 10 Norte 0 -- -- 94
2019-01-17 12:00:00 3.3 6 Noroeste 12 Noroeste 0 -- -- 97
2019-01-17 11:00:00 2.9 5 Noroeste 10 Oeste 0 -- -- 98
2019-01-17 10:00:00 2.4 3 Sur 6 Sudoeste 0 -- -- 98
2019-01-17 09:00:00 1.9 2 Sudoeste 9 Sudoeste 0 -- -- 97
2019-01-17 08:00:00 2.1 3 Sudoeste 6 Sur 0 -- -- 95
2019-01-17 07:00:00 1.6 0 Calma 3 Sur 0 -- -- 95
2019-01-17 06:00:00 1.2 2 Sur 5 Sur 0 -- -- 96
2019-01-17 05:00:00 1.5 2 Sur 5 Noroeste 0 -- -- 98
2019-01-17 04:00:00 1.5 3 Sudeste 8 Sudeste 0 -- -- 98
2019-01-17 03:00:00 1 5 Sudeste 8 Sudeste 0 -- -- 99
2019-01-17 02:00:00 1.1 2 Sudeste 7 Sudeste 0 -- -- 98
2019-01-17 01:00:00 2.1 4 Sur 11 Sur 0 -- -- 97
2019-01-17 00:00:00 1.5 5 Sudoeste 12 Sudoeste 0 -- -- 95
2019-01-16 23:00:00 3.2 3 Sudoeste 8 Oeste 0 -- -- 93
2019-01-16 22:00:00 3.6 3 Noroeste 9 Oeste 0 -- -- 92
2019-01-16 21:00:00 4.1 3 Noroeste 6 Oeste 0 -- -- 86
2019-01-16 20:00:00 4.4 0 Calma 4 Oeste 0 -- -- 80
2019-01-16 19:00:00 5.5 2 Sudoeste 15 Sudoeste 0 -- -- 77
2019-01-16 18:00:00 8.2 8 Oeste 16 Oeste 0 -- -- 69
2019-01-16 17:00:00 10.1 5 Oeste 14 Oeste 0 -- -- 63
2019-01-16 16:00:00 10.4 9 Noroeste 20 Noroeste 0 -- -- 61
2019-01-16 15:00:00 10.7 12 Noroeste 19 Nordeste 0 -- -- 58
2019-01-16 14:00:00 12.7 3 Noroeste 11 Oeste 0 -- -- 51
2019-01-16 13:00:00 11.3 3 Noroeste 11 Oeste 0 -- -- 55